createdAt,value
2018-06-21T00:01:56.078Z,10.50
2018-06-21T00:04:24.558Z,9.67
2018-06-21T00:06:53.062Z,10.10
2018-06-21T00:09:21.536Z,9.77
2018-06-21T00:11:50.054Z,10.00
2018-06-21T00:14:18.531Z,9.03
2018-06-21T00:16:47.033Z,9.57
2018-06-21T00:19:15.668Z,9.80
2018-06-21T00:21:44.155Z,8.60
2018-06-21T00:24:12.633Z,8.50
2018-06-21T00:26:41.193Z,9.30
2018-06-21T00:29:09.669Z,9.70
2018-06-21T00:31:38.281Z,9.43
2018-06-21T00:34:06.821Z,8.97
2018-06-21T00:36:35.293Z,9.07
2018-06-21T00:39:03.994Z,9.73
2018-06-21T00:41:32.479Z,8.40
2018-06-21T00:44:00.933Z,9.70
2018-06-21T00:46:29.433Z,9.73
2018-06-21T00:48:57.885Z,10.07
2018-06-21T00:51:26.393Z,8.47
2018-06-21T00:53:54.866Z,9.87
2018-06-21T00:56:23.650Z,9.57
2018-06-21T00:58:52.208Z,9.27
2018-06-21T01:01:20.765Z,9.50
2018-06-21T01:03:49.297Z,9.20
2018-06-21T01:06:17.787Z,8.30
2018-06-21T01:08:46.311Z,9.30
2018-06-21T01:11:14.814Z,8.60
2018-06-21T01:13:43.293Z,9.67
2018-06-21T01:16:11.798Z,8.30
2018-06-21T01:18:40.303Z,9.43
2018-06-21T01:21:08.784Z,8.60
2018-06-21T01:23:37.288Z,7.50
2018-06-21T01:26:05.909Z,8.53
2018-06-21T01:28:34.450Z,8.53
2018-06-21T01:31:02.972Z,8.27
2018-06-21T01:33:31.457Z,10.00
2018-06-21T01:36:00.071Z,8.33
2018-06-21T01:38:28.553Z,9.97
2018-06-21T01:40:57.029Z,8.80
2018-06-21T01:43:25.847Z,9.37
2018-06-21T01:45:54.484Z,9.77
2018-06-21T01:48:22.984Z,9.50
2018-06-21T01:50:51.498Z,8.70
2018-06-21T01:53:20.037Z,8.97
2018-06-21T01:55:48.562Z,7.80
2018-06-21T01:58:17.045Z,9.13
2018-06-21T02:00:45.545Z,9.40
2018-06-21T02:03:14.041Z,10.10
2018-06-21T02:05:42.675Z,8.97
2018-06-21T02:08:11.228Z,8.73
2018-06-21T02:10:39.638Z,9.40
2018-06-21T02:13:08.130Z,9.17
2018-06-21T02:15:36.627Z,9.63
2018-06-21T02:18:05.284Z,12.20
2018-06-21T02:20:33.983Z,9.67
2018-06-21T02:23:02.700Z,9.60
2018-06-21T02:25:31.552Z,10.10
2018-06-21T02:28:00.245Z,8.73
2018-06-21T02:30:29.045Z,10.00
2018-06-21T02:32:57.895Z,8.90
2018-06-21T02:35:26.604Z,10.27
2018-06-21T02:37:55.288Z,10.43
2018-06-21T02:40:25.108Z,14.40
2018-06-21T02:42:53.777Z,14.70
2018-06-21T02:45:22.444Z,16.37
2018-06-21T02:47:51.152Z,15.33
2018-06-21T02:50:19.901Z,21.53
2018-06-21T02:52:48.578Z,21.53
2018-06-21T02:55:17.294Z,19.10
2018-06-21T02:57:46.011Z,21.53
2018-06-21T03:00:14.720Z,21.03
2018-06-21T03:02:43.499Z,22.80
2018-06-21T03:05:12.172Z,23.70
2018-06-21T03:07:40.857Z,21.37
2018-06-21T03:10:09.565Z,20.53
2018-06-21T03:12:38.405Z,21.13
2018-06-21T03:15:07.092Z,21.63
2018-06-21T03:17:35.772Z,21.60
2018-06-21T03:20:04.568Z,21.20
2018-06-21T03:22:33.157Z,21.07
2018-06-21T03:25:01.648Z,21.53
2018-06-21T03:27:30.151Z,23.43
2018-06-21T03:29:58.863Z,22.70
2018-06-21T03:32:27.671Z,24.00
2018-06-21T03:34:56.252Z,21.53
2018-06-21T03:37:24.824Z,21.27
2018-06-21T03:39:53.337Z,21.97
2018-06-21T03:42:22.504Z,20.73
2018-06-21T03:44:51.051Z,20.27
2018-06-21T03:47:19.551Z,20.80
2018-06-21T03:49:48.072Z,20.67
2018-06-21T03:52:16.603Z,20.27
2018-06-21T03:54:45.161Z,20.33
2018-06-21T03:57:14.600Z,18.80
2018-06-21T03:59:43.167Z,20.53
2018-06-21T04:02:11.722Z,20.60
2018-06-21T04:04:40.278Z,19.23
2018-06-21T04:07:08.782Z,20.00
2018-06-21T04:09:37.363Z,20.60
2018-06-21T04:12:05.983Z,18.90
2018-06-21T04:14:34.574Z,16.20
2018-06-21T04:17:03.078Z,16.70
2018-06-21T04:19:31.558Z,16.20
2018-06-21T04:22:00.324Z,14.80
2018-06-21T04:24:28.819Z,15.80
2018-06-21T04:26:57.316Z,16.97
2018-06-21T04:29:25.950Z,16.40
2018-06-21T04:31:54.905Z,16.23
2018-06-21T04:34:23.427Z,15.40
2018-06-21T04:36:51.931Z,15.20
2018-06-21T04:39:20.542Z,15.70
2018-06-21T04:41:49.032Z,15.63
2018-06-21T04:44:17.547Z,13.43
2018-06-21T04:46:46.126Z,14.50
2018-06-21T04:49:14.675Z,13.63
2018-06-21T04:51:43.171Z,12.73
2018-06-21T04:54:11.661Z,13.43
2018-06-21T04:56:40.204Z,13.37
2018-06-21T04:59:08.705Z,12.50
2018-06-21T05:01:37.237Z,10.80
2018-06-21T05:04:05.827Z,10.50
2018-06-21T05:06:34.414Z,10.00
2018-06-21T05:09:02.966Z,9.40
2018-06-21T05:11:31.560Z,10.03
2018-06-21T05:14:00.310Z,10.00
2018-06-21T05:16:28.807Z,10.47
2018-06-21T05:18:57.341Z,10.27
2018-06-21T05:21:25.846Z,9.47
2018-06-21T05:23:54.365Z,8.10
2018-06-21T05:26:22.951Z,7.97
2018-06-21T05:28:51.530Z,8.07
2018-06-21T05:31:20.323Z,8.30
2018-06-21T05:33:49.083Z,7.93
2018-06-21T05:36:17.641Z,7.70
2018-06-21T05:38:46.514Z,8.87
2018-06-21T05:41:14.989Z,8.00
2018-06-21T05:43:43.539Z,7.60
2018-06-21T05:46:12.023Z,7.57
2018-06-21T05:48:40.543Z,8.27
2018-06-21T05:51:09.074Z,9.13
2018-06-21T05:53:38.110Z,8.70
2018-06-21T05:56:06.754Z,9.17
2018-06-21T05:58:35.311Z,6.20
2018-06-21T06:01:03.851Z,8.10
2018-06-21T06:03:32.380Z,7.40
2018-06-21T06:06:00.894Z,7.57
2018-06-21T06:08:29.421Z,6.63
2018-06-21T06:10:57.924Z,7.53
2018-06-21T06:13:26.510Z,8.93
2018-06-21T06:15:55.030Z,8.43
2018-06-21T06:18:23.506Z,7.57
2018-06-21T06:20:52.043Z,6.43
2018-06-21T06:23:20.614Z,8.50
2018-06-21T06:25:49.119Z,8.60
2018-06-21T06:28:17.765Z,6.50
2018-06-21T06:30:46.280Z,6.50
2018-06-21T06:33:14.833Z,8.63
2018-06-21T06:35:43.599Z,7.03
2018-06-21T06:38:12.118Z,7.87
2018-06-21T06:40:41.251Z,5.80
2018-06-21T06:43:09.838Z,5.27
2018-06-21T06:45:38.549Z,5.60
2018-06-21T06:48:07.100Z,4.27
2018-06-21T06:50:35.619Z,4.70
2018-06-21T06:53:04.257Z,5.27
2018-06-21T06:55:33.312Z,4.30
2018-06-21T06:58:01.824Z,4.67
2018-06-21T07:00:30.379Z,4.13
2018-06-21T07:02:58.901Z,3.43
2018-06-21T07:05:27.425Z,3.90
2018-06-21T07:07:56.135Z,3.47
2018-06-21T07:10:24.640Z,3.40
2018-06-21T07:12:53.162Z,3.47
2018-06-21T07:15:21.772Z,3.20
2018-06-21T07:17:50.366Z,3.03
2018-06-21T07:20:18.983Z,3.37
2018-06-21T07:22:47.422Z,3.47
2018-06-21T07:25:15.935Z,3.00
2018-06-21T07:27:44.833Z,2.90
2018-06-21T07:30:13.386Z,3.30
2018-06-21T07:32:41.877Z,3.40
2018-06-21T07:35:10.573Z,2.63
2018-06-21T07:37:39.746Z,3.00
2018-06-21T07:40:08.612Z,3.03
2018-06-21T07:42:37.446Z,2.70
2018-06-21T07:45:06.391Z,2.23
2018-06-21T07:47:34.904Z,2.33
2018-06-21T07:50:03.754Z,2.60
2018-06-21T07:52:32.282Z,3.23
2018-06-21T07:55:00.886Z,2.10
2018-06-21T07:57:29.366Z,2.60
2018-06-21T07:59:57.875Z,1.70
2018-06-21T08:02:26.406Z,2.70
2018-06-21T08:04:54.921Z,2.60
2018-06-21T08:07:23.594Z,2.60
2018-06-21T08:09:52.099Z,3.13
2018-06-21T08:12:20.702Z,2.83
2018-06-21T08:14:49.289Z,3.27
2018-06-21T08:17:17.894Z,2.37
2018-06-21T08:19:46.455Z,3.63
2018-06-21T08:22:14.962Z,5.10
2018-06-21T08:24:43.515Z,3.60
2018-06-21T08:27:12.056Z,2.83
2018-06-21T08:29:40.572Z,2.50
2018-06-21T08:32:09.277Z,2.77
2018-06-21T08:34:37.838Z,2.43
2018-06-21T08:37:06.674Z,3.20
2018-06-21T08:39:35.467Z,2.73
2018-06-21T08:42:03.961Z,3.17
2018-06-21T08:44:32.422Z,3.80
2018-06-21T08:47:00.939Z,3.73
2018-06-21T08:49:29.560Z,3.30
2018-06-21T08:51:58.053Z,3.27
2018-06-21T08:54:26.854Z,3.33
2018-06-21T08:56:55.382Z,3.27
2018-06-21T08:59:24.066Z,2.90
2018-06-21T09:01:52.607Z,3.50
2018-06-21T09:04:21.095Z,2.67
2018-06-21T09:06:49.841Z,3.00
2018-06-21T09:09:18.335Z,2.70
2018-06-21T09:11:46.905Z,2.20
2018-06-21T09:14:15.382Z,2.17
2018-06-21T09:16:43.899Z,2.30
2018-06-21T09:19:12.442Z,2.40
2018-06-21T09:21:40.962Z,2.70
2018-06-21T09:24:09.474Z,1.80
2018-06-21T09:26:38.148Z,1.93
2018-06-21T09:29:06.971Z,2.27
2018-06-21T09:31:35.789Z,2.10
2018-06-21T09:34:04.330Z,1.73
2018-06-21T09:36:38.823Z,1.73
2018-06-21T09:39:17.397Z,1.67
2018-06-21T09:41:51.550Z,1.83
2018-06-21T09:44:25.227Z,1.67
2018-06-21T09:46:59.096Z,1.20
2018-06-21T09:49:29.436Z,1.10
2018-06-21T09:51:59.278Z,1.20
2018-06-21T09:54:27.918Z,1.00
2018-06-21T09:56:56.589Z,1.70
2018-06-21T09:59:25.083Z,1.37
2018-06-21T10:01:53.684Z,1.73
2018-06-21T10:04:22.321Z,1.30
2018-06-21T10:06:50.827Z,1.57
2018-06-21T10:09:19.432Z,1.10
2018-06-21T10:11:48.253Z,1.93
2018-06-21T10:14:16.749Z,0.93
2018-06-21T10:16:45.314Z,1.50
2018-06-21T10:19:13.817Z,1.87
2018-06-21T10:21:42.306Z,1.40
2018-06-21T10:24:10.850Z,1.30
2018-06-21T10:26:39.410Z,1.53
2018-06-21T10:29:08.027Z,1.03
2018-06-21T10:31:36.801Z,1.43
2018-06-21T10:34:05.287Z,1.60
2018-06-21T10:36:33.842Z,1.03
2018-06-21T10:39:02.359Z,1.30
2018-06-21T10:41:30.838Z,1.63
2018-06-21T10:43:59.374Z,1.37
2018-06-21T10:46:27.915Z,1.30
2018-06-21T10:48:56.826Z,1.30
2018-06-21T10:51:25.389Z,2.00
2018-06-21T10:53:54.033Z,1.53
2018-06-21T10:56:22.623Z,1.47
2018-06-21T10:58:51.173Z,1.20
2018-06-21T11:01:20.022Z,1.10
2018-06-21T11:03:48.542Z,1.47
2018-06-21T11:06:17.077Z,1.30
2018-06-21T11:08:45.634Z,1.70
2018-06-21T11:11:14.901Z,1.57
2018-06-21T11:13:43.386Z,1.53
2018-06-21T11:16:11.948Z,1.43
2018-06-21T11:18:40.648Z,1.47
2018-06-21T11:21:09.151Z,1.23
2018-06-21T11:23:37.675Z,1.20
2018-06-21T11:26:06.367Z,1.80
2018-06-21T11:28:35.034Z,1.20
2018-06-21T11:31:03.551Z,1.77
2018-06-21T11:33:32.173Z,1.00
2018-06-21T11:36:00.731Z,1.17
2018-06-21T11:38:29.229Z,1.30
2018-06-21T11:40:59.032Z,1.30
2018-06-21T11:43:27.577Z,1.50
2018-06-21T11:45:56.092Z,1.33
2018-06-21T11:48:24.611Z,1.17
2018-06-21T11:50:53.111Z,1.20
2018-06-21T11:53:21.632Z,1.50
2018-06-21T11:55:50.148Z,1.30
2018-06-21T11:58:18.770Z,1.13
2018-06-21T12:00:47.304Z,1.30
2018-06-21T12:03:15.822Z,0.90
2018-06-21T12:05:44.322Z,1.20
2018-06-21T12:08:12.850Z,1.13
2018-06-21T12:10:41.383Z,2.00
2018-06-21T12:13:09.863Z,1.13
2018-06-21T12:15:38.407Z,1.33
2018-06-21T12:18:06.918Z,1.23
2018-06-21T12:20:35.506Z,1.37
2018-06-21T12:23:04.014Z,2.00
2018-06-21T12:25:32.519Z,1.20
2018-06-21T12:28:01.107Z,1.27
2018-06-21T12:30:29.631Z,1.57
2018-06-21T12:33:00.565Z,1.13
2018-06-21T12:35:29.200Z,1.27
2018-06-21T12:37:57.739Z,0.80
2018-06-21T12:40:26.243Z,1.10
2018-06-21T12:42:54.871Z,1.27
2018-06-21T12:45:23.346Z,1.00
2018-06-21T12:47:51.945Z,1.67
2018-06-21T12:50:20.441Z,2.97
2018-06-21T12:52:49.259Z,1.77
2018-06-21T12:55:17.798Z,1.40
2018-06-21T12:57:46.297Z,1.17
2018-06-21T13:00:14.816Z,1.00
2018-06-21T13:02:43.436Z,1.07
2018-06-21T13:05:13.311Z,1.00
2018-06-21T13:07:41.901Z,1.03
2018-06-21T13:10:21.645Z,1.67
2018-06-21T13:13:06.690Z,1.07
2018-06-21T13:15:35.247Z,1.43
2018-06-21T13:18:03.892Z,0.93
2018-06-21T13:20:32.422Z,1.13
2018-06-21T13:23:00.951Z,1.67
2018-06-21T13:25:29.479Z,1.10
2018-06-21T13:27:58.219Z,1.00
2018-06-21T13:30:26.751Z,1.07
2018-06-21T13:32:55.229Z,1.60
2018-06-21T13:35:23.754Z,1.10
2018-06-21T13:37:52.299Z,1.00
2018-06-21T13:40:20.838Z,0.90
2018-06-21T13:42:49.333Z,1.20
2018-06-21T13:45:17.806Z,0.93
2018-06-21T13:47:46.350Z,1.00
2018-06-21T13:50:14.842Z,1.10
2018-06-21T13:52:43.500Z,1.53
2018-06-21T13:55:11.970Z,1.20
2018-06-21T13:57:40.610Z,0.80
2018-06-21T14:00:09.332Z,1.07
2018-06-21T14:02:37.885Z,1.10
2018-06-21T14:05:06.496Z,1.20
2018-06-21T14:07:35.093Z,1.00
2018-06-21T14:10:03.590Z,1.10
2018-06-21T14:12:32.119Z,0.87
2018-06-21T14:15:00.845Z,0.70
2018-06-21T14:17:29.374Z,1.20
2018-06-21T14:19:57.919Z,1.57
2018-06-21T14:22:26.414Z,0.80
2018-06-21T14:24:54.960Z,0.80
2018-06-21T14:27:23.490Z,1.33
2018-06-21T14:29:51.999Z,1.20
2018-06-21T14:32:20.569Z,1.00
2018-06-21T14:34:49.066Z,0.70
2018-06-21T14:37:17.545Z,1.00
2018-06-21T14:39:46.055Z,0.90
2018-06-21T14:42:14.671Z,0.70
2018-06-21T14:44:43.144Z,0.93
2018-06-21T14:47:11.690Z,1.17
2018-06-21T14:49:40.291Z,0.80
2018-06-21T14:52:08.814Z,0.83
2018-06-21T14:54:37.403Z,1.13
2018-06-21T14:57:06.034Z,0.73
2018-06-21T14:59:34.486Z,0.90
2018-06-21T15:02:03.019Z,1.10
2018-06-21T15:04:31.509Z,1.20
2018-06-21T15:07:00.123Z,0.80
2018-06-21T15:09:28.622Z,1.00
2018-06-21T15:11:57.102Z,0.73
2018-06-21T15:14:25.918Z,0.77
2018-06-21T15:16:54.399Z,1.33
2018-06-21T15:19:22.960Z,0.90
2018-06-21T15:21:51.512Z,0.70
2018-06-21T15:24:20.034Z,1.10
2018-06-21T15:26:48.589Z,0.70
2018-06-21T15:29:17.074Z,0.80
2018-06-21T15:31:45.617Z,0.67
2018-06-21T15:34:14.133Z,1.40
2018-06-21T15:36:42.776Z,0.90
2018-06-21T15:39:20.019Z,0.80
2018-06-21T15:41:48.632Z,1.00
2018-06-21T15:44:17.599Z,1.13
2018-06-21T15:46:46.202Z,1.00
2018-06-21T15:49:15.383Z,0.90
2018-06-21T15:51:44.448Z,0.97
2018-06-21T15:54:13.038Z,0.77
2018-06-21T15:56:42.536Z,1.10
2018-06-21T15:59:11.495Z,0.87
2018-06-21T16:01:40.163Z,0.80
2018-06-21T16:04:08.842Z,0.90
2018-06-21T16:06:37.509Z,0.90
2018-06-21T16:09:09.447Z,0.90
2018-06-21T16:11:38.418Z,0.97
2018-06-21T16:14:07.160Z,0.90
2018-06-21T16:16:35.723Z,1.43
2018-06-21T16:19:04.242Z,0.77
2018-06-21T16:21:32.803Z,0.80
2018-06-21T16:24:01.556Z,1.27
2018-06-21T16:26:30.211Z,1.70
2018-06-21T16:28:58.800Z,1.10
2018-06-21T16:31:27.338Z,1.27
2018-06-21T16:33:56.184Z,1.00
2018-06-21T16:36:24.672Z,2.20
2018-06-21T16:38:53.175Z,1.13
2018-06-21T16:41:21.871Z,1.10
2018-06-21T16:43:50.493Z,1.23
2018-06-21T16:46:19.028Z,0.73
2018-06-21T16:48:47.711Z,0.77
2018-06-21T16:51:16.259Z,0.77
2018-06-21T16:53:44.850Z,0.70
2018-06-21T16:56:13.350Z,1.00
2018-06-21T16:58:41.842Z,1.10
2018-06-21T17:01:11.120Z,0.93
2018-06-21T17:03:39.630Z,0.80
2018-06-21T17:06:08.176Z,1.00
2018-06-21T17:08:36.899Z,0.93
2018-06-21T17:11:05.543Z,1.17
2018-06-21T17:13:34.058Z,1.30
2018-06-21T17:16:02.595Z,1.57
2018-06-21T17:18:31.983Z,1.13
2018-06-21T17:21:00.717Z,1.50
2018-06-21T17:23:29.282Z,1.30
2018-06-21T17:25:57.855Z,1.47
2018-06-21T17:28:26.417Z,2.80
2018-06-21T17:30:54.966Z,1.57
2018-06-21T17:33:24.199Z,1.17
2018-06-21T17:35:52.694Z,1.50
2018-06-21T17:38:21.182Z,1.13
2018-06-21T17:40:49.715Z,1.80
2018-06-21T17:43:18.214Z,1.20
2018-06-21T17:45:46.867Z,1.50
2018-06-21T17:48:15.387Z,1.40
2018-06-21T17:50:43.970Z,1.50
2018-06-21T17:53:13.165Z,1.53
2018-06-21T17:55:41.755Z,1.30
2018-06-21T17:58:10.414Z,0.90
2018-06-21T18:00:38.886Z,1.33
2018-06-21T18:03:07.409Z,1.07
2018-06-21T18:05:35.933Z,1.57
2018-06-21T18:08:04.771Z,0.90
2018-06-21T18:10:33.500Z,1.20
2018-06-21T18:13:01.947Z,1.60
2018-06-21T18:15:30.457Z,1.30
2018-06-21T18:17:59.004Z,1.80
2018-06-21T18:20:27.638Z,1.77
2018-06-21T18:22:56.185Z,1.23
2018-06-21T18:25:24.738Z,1.37
2018-06-21T18:27:54.693Z,1.27
2018-06-21T18:30:23.237Z,1.40
2018-06-21T18:32:51.709Z,1.63
2018-06-21T18:35:20.252Z,1.97
2018-06-21T18:37:48.967Z,1.73
2018-06-21T18:40:17.523Z,1.60
2018-06-21T18:42:46.255Z,1.60
2018-06-21T18:45:14.927Z,2.17
2018-06-21T18:47:43.564Z,2.73
2018-06-21T18:50:12.238Z,2.13
2018-06-21T18:52:40.861Z,1.90
2018-06-21T18:55:09.564Z,1.90
2018-06-21T18:57:38.140Z,1.83
2018-06-21T19:00:09.058Z,1.70
2018-06-21T19:02:38.023Z,1.50
2018-06-21T19:05:06.972Z,1.70
2018-06-21T19:07:36.086Z,1.13
2018-06-21T19:10:09.986Z,2.83
2018-06-21T19:12:38.494Z,1.80
2018-06-21T19:15:07.089Z,1.60
2018-06-21T19:17:36.106Z,2.00
2018-06-21T19:20:04.816Z,1.77
2018-06-21T19:22:33.469Z,1.90
2018-06-21T19:25:02.116Z,1.93
2018-06-21T19:27:30.822Z,2.20
2018-06-21T19:29:59.305Z,2.30
2018-06-21T19:32:28.114Z,2.17
2018-06-21T19:34:56.789Z,2.23
2018-06-21T19:37:25.450Z,2.60
2018-06-21T19:39:54.127Z,2.43
2018-06-21T19:42:22.606Z,2.33
2018-06-21T19:44:51.210Z,2.20
2018-06-21T19:47:19.735Z,3.23
2018-06-21T19:49:48.432Z,2.07
2018-06-21T19:52:17.020Z,2.90
2018-06-21T19:54:45.536Z,2.57
2018-06-21T19:57:14.070Z,2.30
2018-06-21T19:59:42.637Z,3.00
2018-06-21T20:02:11.158Z,2.37
2018-06-21T20:04:39.662Z,1.90
2018-06-21T20:07:08.147Z,2.33
2018-06-21T20:09:36.763Z,2.50
2018-06-21T20:12:05.392Z,2.07
2018-06-21T20:14:33.889Z,2.30
2018-06-21T20:17:02.437Z,2.13
2018-06-21T20:19:35.072Z,2.10
2018-06-21T20:22:03.603Z,2.40
2018-06-21T20:24:32.087Z,2.30
2018-06-21T20:27:00.583Z,3.50
2018-06-21T20:29:29.107Z,1.97
2018-06-21T20:31:57.598Z,2.47
2018-06-21T20:34:26.247Z,2.27
2018-06-21T20:36:54.794Z,3.27
2018-06-21T20:39:23.319Z,3.00
2018-06-21T20:41:52.334Z,2.30
2018-06-21T20:44:20.884Z,2.13
2018-06-21T20:46:49.375Z,2.33
2018-06-21T20:49:22.498Z,2.27
2018-06-21T20:51:51.052Z,4.67
2018-06-21T20:54:19.565Z,2.17
2018-06-21T20:56:48.067Z,2.67
2018-06-21T20:59:16.582Z,2.17
2018-06-21T21:01:46.464Z,2.63
2018-06-21T21:04:14.974Z,2.97
2018-06-21T21:06:43.462Z,2.30
2018-06-21T21:09:11.999Z,2.70
2018-06-21T21:11:40.482Z,2.47
2018-06-21T21:14:09.015Z,3.50
2018-06-21T21:16:37.561Z,3.00
2018-06-21T21:19:06.040Z,2.90
2018-06-21T21:21:34.565Z,2.47
2018-06-21T21:24:03.064Z,2.03
2018-06-21T21:26:31.720Z,1.70
2018-06-21T21:29:00.231Z,2.10
2018-06-21T21:31:28.715Z,2.03
2018-06-21T21:33:57.274Z,2.30
2018-06-21T21:36:25.903Z,2.10
2018-06-21T21:38:54.637Z,1.83
2018-06-21T21:41:23.108Z,2.17
2018-06-21T21:43:51.866Z,2.80
2018-06-21T21:46:21.379Z,2.50
2018-06-21T21:48:49.871Z,1.90
2018-06-21T21:51:18.369Z,1.67
2018-06-21T21:53:46.883Z,1.80
2018-06-21T21:56:15.349Z,1.87
2018-06-21T21:58:43.998Z,1.87
2018-06-21T22:01:13.155Z,1.77
2018-06-21T22:03:41.649Z,1.73
2018-06-21T22:06:10.163Z,1.43
2018-06-21T22:08:38.734Z,1.93
2018-06-21T22:11:07.409Z,1.50
2018-06-21T22:13:35.927Z,1.83
2018-06-21T22:16:04.426Z,1.97
2018-06-21T22:18:33.079Z,1.87
2018-06-21T22:21:01.574Z,1.60
2018-06-21T22:23:30.067Z,1.53
2018-06-21T22:25:58.587Z,2.23
2018-06-21T22:28:27.090Z,2.10
2018-06-21T22:30:55.593Z,1.40
2018-06-21T22:33:24.082Z,1.90
2018-06-21T22:35:52.582Z,2.17
2018-06-21T22:38:21.122Z,3.03
2018-06-21T22:40:49.615Z,2.60
2018-06-21T22:43:18.718Z,1.93
2018-06-21T22:45:47.361Z,2.40
2018-06-21T22:48:15.845Z,1.97
2018-06-21T22:50:44.371Z,2.20
2018-06-21T22:53:12.867Z,2.90
2018-06-21T22:55:41.355Z,2.13
2018-06-21T22:58:09.914Z,2.90
2018-06-21T23:00:38.393Z,2.33
2018-06-21T23:03:07.151Z,2.73
2018-06-21T23:05:35.667Z,1.77
2018-06-21T23:08:04.153Z,2.23
2018-06-21T23:10:32.683Z,2.70
2018-06-21T23:13:01.330Z,2.63
2018-06-21T23:15:29.988Z,1.90
2018-06-21T23:17:58.757Z,3.90
2018-06-21T23:20:27.374Z,2.70
2018-06-21T23:22:55.859Z,3.13
2018-06-21T23:25:24.363Z,2.77
2018-06-21T23:27:52.888Z,1.93
2018-06-21T23:30:21.494Z,3.90
2018-06-21T23:32:50.015Z,2.80
2018-06-21T23:35:18.503Z,3.63
2018-06-21T23:37:47.037Z,2.83
2018-06-21T23:40:15.542Z,3.07
2018-06-21T23:42:44.023Z,2.20
2018-06-21T23:45:12.773Z,3.23
2018-06-21T23:47:41.255Z,3.37
2018-06-21T23:50:09.745Z,2.97
2018-06-21T23:52:38.264Z,2.90
2018-06-21T23:55:06.851Z,2.87
2018-06-21T23:57:35.325Z,2.30
